sensor_id;sensor_type;location;lat;lon;timestamp;temperature;humidity
2010;DHT22;1008;47.404;8.502;2022-08-04T00:01:21;26.30;99.90
2010;DHT22;1008;47.404;8.502;2022-08-04T00:03:53;26.20;99.90
2010;DHT22;1008;47.404;8.502;2022-08-04T00:06:30;26.10;99.90
2010;DHT22;1008;47.404;8.502;2022-08-04T00:09:05;26.10;99.90
2010;DHT22;1008;47.404;8.502;2022-08-04T00:11:33;26.20;99.90
2010;DHT22;1008;47.404;8.502;2022-08-04T00:14:02;26.10;99.90
2010;DHT22;1008;47.404;8.502;2022-08-04T00:16:32;26.30;99.90
2010;DHT22;1008;47.404;8.502;2022-08-04T00:19:03;26.30;99.90
2010;DHT22;1008;47.404;8.502;2022-08-04T00:21:34;26.30;99.90
2010;DHT22;1008;47.404;8.502;2022-08-04T00:24:03;26.10;99.90
2010;DHT22;1008;47.404;8.502;2022-08-04T00:26:31;25.90;99.90
2010;DHT22;1008;47.404;8.502;2022-08-04T00:28:59;25.90;99.90
2010;DHT22;1008;47.404;8.502;2022-08-04T00:31:26;25.70;99.90
2010;DHT22;1008;47.404;8.502;2022-08-04T00:33:53;25.80;99.90
2010;DHT22;1008;47.404;8.502;2022-08-04T00:36:21;25.60;99.90
2010;DHT22;1008;47.404;8.502;2022-08-04T00:38:49;25.50;99.90
2010;DHT22;1008;47.404;8.502;2022-08-04T00:41:25;25.60;99.90
2010;DHT22;1008;47.404;8.502;2022-08-04T00:44:08;25.50;99.90
2010;DHT22;1008;47.404;8.502;2022-08-04T00:49:59;25.70;99.90
2010;DHT22;1008;47.404;8.502;2022-08-04T00:52:40;25.80;99.90
2010;DHT22;1008;47.404;8.502;2022-08-04T00:55:48;25.90;99.90
2010;DHT22;1008;47.404;8.502;2022-08-04T00:58:28;25.70;99.90
2010;DHT22;1008;47.404;8.502;2022-08-04T01:01:02;25.60;99.90
2010;DHT22;1008;47.404;8.502;2022-08-04T01:03:41;25.70;99.90
2010;DHT22;1008;47.404;8.502;2022-08-04T01:06:16;25.80;99.90
2010;DHT22;1008;47.404;8.502;2022-08-04T01:09:02;25.70;99.90
2010;DHT22;1008;47.404;8.502;2022-08-04T01:11:42;25.70;99.90
2010;DHT22;1008;47.404;8.502;2022-08-04T01:14:34;25.50;99.90
2010;DHT22;1008;47.404;8.502;2022-08-04T01:17:13;25.50;99.90
2010;DHT22;1008;47.404;8.502;2022-08-04T01:20:00;25.60;99.90
2010;DHT22;1008;47.404;8.502;2022-08-04T01:26:12;25.40;99.90
2010;DHT22;1008;47.404;8.502;2022-08-04T01:29:02;25.50;99.90
2010;DHT22;1008;47.404;8.502;2022-08-04T01:31:33;25.60;99.90
2010;DHT22;1008;47.404;8.502;2022-08-04T01:34:03;25.40;99.90
2010;DHT22;1008;47.404;8.502;2022-08-04T01:36:32;25.50;99.90
2010;DHT22;1008;47.404;8.502;2022-08-04T01:39:00;25.50;99.90
2010;DHT22;1008;47.404;8.502;2022-08-04T01:41:48;25.30;99.90
2010;DHT22;1008;47.404;8.502;2022-08-04T01:44:17;25.30;99.90
2010;DHT22;1008;47.404;8.502;2022-08-04T01:46:45;25.20;99.90
2010;DHT22;1008;47.404;8.502;2022-08-04T01:49:16;25.30;99.90
2010;DHT22;1008;47.404;8.502;2022-08-04T01:51:45;25.50;99.90
2010;DHT22;1008;47.404;8.502;2022-08-04T01:54:15;25.40;99.90
2010;DHT22;1008;47.404;8.502;2022-08-04T01:56:44;25.40;99.90
2010;DHT22;1008;47.404;8.502;2022-08-04T01:59:14;25.40;99.90
2010;DHT22;1008;47.404;8.502;2022-08-04T02:01:44;25.60;99.90
2010;DHT22;1008;47.404;8.502;2022-08-04T02:04:13;25.50;99.90
2010;DHT22;1008;47.404;8.502;2022-08-04T02:06:49;25.40;99.90
2010;DHT22;1008;47.404;8.502;2022-08-04T02:09:22;25.40;99.90
2010;DHT22;1008;47.404;8.502;2022-08-04T02:12:01;25.40;99.90
2010;DHT22;1008;47.404;8.502;2022-08-04T02:14:30;25.40;99.90
2010;DHT22;1008;47.404;8.502;2022-08-04T02:17:12;25.30;99.90
2010;DHT22;1008;47.404;8.502;2022-08-04T02:19:52;25.20;99.90
2010;DHT22;1008;47.404;8.502;2022-08-04T02:22:24;25.30;99.90
2010;DHT22;1008;47.404;8.502;2022-08-04T02:24:57;25.30;99.90
2010;DHT22;1008;47.404;8.502;2022-08-04T02:27:33;25.20;99.90
2010;DHT22;1008;47.404;8.502;2022-08-04T02:30:04;25.20;99.90
2010;DHT22;1008;47.404;8.502;2022-08-04T02:32:35;24.80;99.90
2010;DHT22;1008;47.404;8.502;2022-08-04T02:35:07;24.70;99.90
2010;DHT22;1008;47.404;8.502;2022-08-04T02:37:35;24.60;99.90
2010;DHT22;1008;47.404;8.502;2022-08-04T02:40:04;24.60;99.90
2010;DHT22;1008;47.404;8.502;2022-08-04T02:42:32;24.60;99.90
2010;DHT22;1008;47.404;8.502;2022-08-04T02:45:00;24.50;99.90
2010;DHT22;1008;47.404;8.502;2022-08-04T02:47:28;24.60;99.90
2010;DHT22;1008;47.404;8.502;2022-08-04T02:49:57;24.60;99.90
2010;DHT22;1008;47.404;8.502;2022-08-04T02:52:24;24.80;99.90
2010;DHT22;1008;47.404;8.502;2022-08-04T02:54:55;24.60;99.90
2010;DHT22;1008;47.404;8.502;2022-08-04T02:57:26;24.60;99.90
2010;DHT22;1008;47.404;8.502;2022-08-04T03:00:04;24.60;99.90
2010;DHT22;1008;47.404;8.502;2022-08-04T03:02:41;24.50;99.90
2010;DHT22;1008;47.404;8.502;2022-08-04T03:05:16;24.40;99.90
2010;DHT22;1008;47.404;8.502;2022-08-04T03:11:15;24.10;99.90
2010;DHT22;1008;47.404;8.502;2022-08-04T03:14:17;24.00;99.90
2010;DHT22;1008;47.404;8.502;2022-08-04T03:23:28;24.00;99.90
2010;DHT22;1008;47.404;8.502;2022-08-04T03:29:28;23.90;99.90
2010;DHT22;1008;47.404;8.502;2022-08-04T03:32:28;23.90;99.90
2010;DHT22;1008;47.404;8.502;2022-08-04T03:35:08;24.00;99.90
2010;DHT22;1008;47.404;8.502;2022-08-04T03:38:03;24.00;99.90
2010;DHT22;1008;47.404;8.502;2022-08-04T03:41:03;23.80;99.90
2010;DHT22;1008;47.404;8.502;2022-08-04T03:49:56;23.60;99.90
2010;DHT22;1008;47.404;8.502;2022-08-04T03:52:42;23.50;99.90
2010;DHT22;1008;47.404;8.502;2022-08-04T03:55:52;23.60;99.90
2010;DHT22;1008;47.404;8.502;2022-08-04T03:58:47;23.70;99.90
2010;DHT22;1008;47.404;8.502;2022-08-04T04:01:42;23.60;99.90
2010;DHT22;1008;47.404;8.502;2022-08-04T04:07:48;23.80;99.90
2010;DHT22;1008;47.404;8.502;2022-08-04T04:17:03;23.70;99.90
2010;DHT22;1008;47.404;8.502;2022-08-04T04:19:57;23.60;99.90
2010;DHT22;1008;47.404;8.502;2022-08-04T04:22:53;23.60;99.90
2010;DHT22;1008;47.404;8.502;2022-08-04T04:25:33;23.80;99.90
2010;DHT22;1008;47.404;8.502;2022-08-04T04:28:17;23.80;99.90
2010;DHT22;1008;47.404;8.502;2022-08-04T04:30:54;23.60;99.90
2010;DHT22;1008;47.404;8.502;2022-08-04T04:33:41;23.80;99.90
2010;DHT22;1008;47.404;8.502;2022-08-04T04:36:15;23.80;99.90
2010;DHT22;1008;47.404;8.502;2022-08-04T04:39:00;23.70;99.90
2010;DHT22;1008;47.404;8.502;2022-08-04T04:41:53;23.60;99.90
2010;DHT22;1008;47.404;8.502;2022-08-04T04:44:53;23.70;99.90
2010;DHT22;1008;47.404;8.502;2022-08-04T04:47:29;23.80;99.90
2010;DHT22;1008;47.404;8.502;2022-08-04T04:50:09;23.80;99.90
2010;DHT22;1008;47.404;8.502;2022-08-04T04:52:41;23.90;99.90
2010;DHT22;1008;47.404;8.502;2022-08-04T04:55:16;23.80;99.90
2010;DHT22;1008;47.404;8.502;2022-08-04T04:57:45;23.90;99.90
2010;DHT22;1008;47.404;8.502;2022-08-04T05:00:14;23.80;99.90
2010;DHT22;1008;47.404;8.502;2022-08-04T05:03:11;24.00;99.90
2010;DHT22;1008;47.404;8.502;2022-08-04T05:06:06;24.10;99.90
2010;DHT22;1008;47.404;8.502;2022-08-04T05:08:52;24.20;99.90
2010;DHT22;1008;47.404;8.502;2022-08-04T05:14:29;24.60;99.90
2010;DHT22;1008;47.404;8.502;2022-08-04T05:17:02;24.50;99.90
2010;DHT22;1008;47.404;8.502;2022-08-04T05:19:39;24.50;99.90
2010;DHT22;1008;47.404;8.502;2022-08-04T05:22:13;24.40;99.90
2010;DHT22;1008;47.404;8.502;2022-08-04T05:24:44;24.30;99.90
2010;DHT22;1008;47.404;8.502;2022-08-04T05:27:16;24.20;99.90
2010;DHT22;1008;47.404;8.502;2022-08-04T05:29:49;24.20;99.90
2010;DHT22;1008;47.404;8.502;2022-08-04T05:32:22;24.20;99.90
2010;DHT22;1008;47.404;8.502;2022-08-04T05:34:56;24.20;99.90
2010;DHT22;1008;47.404;8.502;2022-08-04T05:37:26;24.20;99.90
2010;DHT22;1008;47.404;8.502;2022-08-04T05:39:59;24.10;99.90
2010;DHT22;1008;47.404;8.502;2022-08-04T05:42:29;24.20;99.90
2010;DHT22;1008;47.404;8.502;2022-08-04T05:44:57;24.40;99.90
2010;DHT22;1008;47.404;8.502;2022-08-04T05:47:26;24.40;99.90
2010;DHT22;1008;47.404;8.502;2022-08-04T05:49:54;24.60;99.90
2010;DHT22;1008;47.404;8.502;2022-08-04T05:52:21;24.50;99.90
2010;DHT22;1008;47.404;8.502;2022-08-04T05:54:51;24.80;99.90
2010;DHT22;1008;47.404;8.502;2022-08-04T05:57:18;24.60;99.90
2010;DHT22;1008;47.404;8.502;2022-08-04T05:59:46;24.60;99.90
2010;DHT22;1008;47.404;8.502;2022-08-04T06:02:16;24.50;99.90
2010;DHT22;1008;47.404;8.502;2022-08-04T06:04:47;24.50;99.90
2010;DHT22;1008;47.404;8.502;2022-08-04T06:07:15;24.80;99.90
2010;DHT22;1008;47.404;8.502;2022-08-04T06:09:42;24.90;99.90
2010;DHT22;1008;47.404;8.502;2022-08-04T06:12:14;25.00;99.90
2010;DHT22;1008;47.404;8.502;2022-08-04T06:14:44;25.10;99.90
2010;DHT22;1008;47.404;8.502;2022-08-04T06:17:18;25.50;99.90
2010;DHT22;1008;47.404;8.502;2022-08-04T06:19:48;25.30;99.90
2010;DHT22;1008;47.404;8.502;2022-08-04T06:22:16;25.50;99.90
2010;DHT22;1008;47.404;8.502;2022-08-04T06:24:44;25.70;99.90
2010;DHT22;1008;47.404;8.502;2022-08-04T06:27:14;25.70;99.90
2010;DHT22;1008;47.404;8.502;2022-08-04T06:29:42;25.70;99.90
2010;DHT22;1008;47.404;8.502;2022-08-04T06:32:12;25.80;99.90
2010;DHT22;1008;47.404;8.502;2022-08-04T06:34:51;25.80;99.90
2010;DHT22;1008;47.404;8.502;2022-08-04T06:37:20;26.00;99.90
2010;DHT22;1008;47.404;8.502;2022-08-04T06:39:47;26.30;99.90
2010;DHT22;1008;47.404;8.502;2022-08-04T06:42:17;26.50;99.90
2010;DHT22;1008;47.404;8.502;2022-08-04T06:44:45;26.60;99.90
2010;DHT22;1008;47.404;8.502;2022-08-04T06:47:14;26.70;99.90
2010;DHT22;1008;47.404;8.502;2022-08-04T06:49:44;26.80;99.90
2010;DHT22;1008;47.404;8.502;2022-08-04T06:52:13;26.50;99.90
2010;DHT22;1008;47.404;8.502;2022-08-04T06:54:42;26.30;99.90
2010;DHT22;1008;47.404;8.502;2022-08-04T06:57:10;26.50;99.90
2010;DHT22;1008;47.404;8.502;2022-08-04T06:59:42;26.60;99.90
2010;DHT22;1008;47.404;8.502;2022-08-04T07:02:13;26.90;99.90
2010;DHT22;1008;47.404;8.502;2022-08-04T07:04:41;27.00;99.90
2010;DHT22;1008;47.404;8.502;2022-08-04T07:07:10;27.10;99.90
2010;DHT22;1008;47.404;8.502;2022-08-04T07:09:37;27.10;99.90
2010;DHT22;1008;47.404;8.502;2022-08-04T07:12:05;26.90;99.90
2010;DHT22;1008;47.404;8.502;2022-08-04T07:14:32;26.90;99.90
2010;DHT22;1008;47.404;8.502;2022-08-04T07:17:02;27.10;99.90
2010;DHT22;1008;47.404;8.502;2022-08-04T07:19:30;27.10;99.90
2010;DHT22;1008;47.404;8.502;2022-08-04T07:21:57;27.10;99.90
2010;DHT22;1008;47.404;8.502;2022-08-04T07:24:28;27.10;99.90
2010;DHT22;1008;47.404;8.502;2022-08-04T07:26:55;27.30;99.90
2010;DHT22;1008;47.404;8.502;2022-08-04T07:29:23;27.30;99.90
2010;DHT22;1008;47.404;8.502;2022-08-04T07:31:50;27.30;99.90
2010;DHT22;1008;47.404;8.502;2022-08-04T07:34:19;27.40;99.90
2010;DHT22;1008;47.404;8.502;2022-08-04T07:36:47;27.40;99.90
2010;DHT22;1008;47.404;8.502;2022-08-04T07:39:14;27.70;99.90
2010;DHT22;1008;47.404;8.502;2022-08-04T07:41:42;27.70;99.90
2010;DHT22;1008;47.404;8.502;2022-08-04T07:44:09;27.60;99.90
2010;DHT22;1008;47.404;8.502;2022-08-04T07:46:38;27.80;99.90
2010;DHT22;1008;47.404;8.502;2022-08-04T07:49:05;27.80;99.90
2010;DHT22;1008;47.404;8.502;2022-08-04T07:51:36;27.90;99.90
2010;DHT22;1008;47.404;8.502;2022-08-04T07:54:03;28.00;99.90
2010;DHT22;1008;47.404;8.502;2022-08-04T07:56:31;28.20;99.90
2010;DHT22;1008;47.404;8.502;2022-08-04T07:58:59;28.30;99.90
2010;DHT22;1008;47.404;8.502;2022-08-04T08:01:26;28.50;99.90
2010;DHT22;1008;47.404;8.502;2022-08-04T08:03:55;28.50;99.90
2010;DHT22;1008;47.404;8.502;2022-08-04T08:06:23;28.40;99.90
2010;DHT22;1008;47.404;8.502;2022-08-04T08:08:51;28.40;99.90
2010;DHT22;1008;47.404;8.502;2022-08-04T08:11:18;28.60;99.90
2010;DHT22;1008;47.404;8.502;2022-08-04T08:13:44;28.60;99.90
2010;DHT22;1008;47.404;8.502;2022-08-04T08:16:12;28.90;99.90
2010;DHT22;1008;47.404;8.502;2022-08-04T08:18:39;29.00;99.90
2010;DHT22;1008;47.404;8.502;2022-08-04T08:21:06;29.10;99.90
2010;DHT22;1008;47.404;8.502;2022-08-04T08:23:34;29.30;99.90
2010;DHT22;1008;47.404;8.502;2022-08-04T08:26:05;29.50;99.90
2010;DHT22;1008;47.404;8.502;2022-08-04T08:28:31;29.60;99.90
2010;DHT22;1008;47.404;8.502;2022-08-04T08:30:58;29.60;99.90
2010;DHT22;1008;47.404;8.502;2022-08-04T08:33:25;29.50;99.90
2010;DHT22;1008;47.404;8.502;2022-08-04T08:35:55;29.50;99.90
2010;DHT22;1008;47.404;8.502;2022-08-04T08:38:39;29.40;99.90
2010;DHT22;1008;47.404;8.502;2022-08-04T08:41:39;29.50;99.90
2010;DHT22;1008;47.404;8.502;2022-08-04T08:44:37;29.60;99.90
2010;DHT22;1008;47.404;8.502;2022-08-04T08:47:18;29.90;99.90
2010;DHT22;1008;47.404;8.502;2022-08-04T08:50:02;30.30;99.90
2010;DHT22;1008;47.404;8.502;2022-08-04T08:52:38;30.40;99.90
2010;DHT22;1008;47.404;8.502;2022-08-04T08:55:22;30.40;99.90
2010;DHT22;1008;47.404;8.502;2022-08-04T08:58:07;30.50;99.90
2010;DHT22;1008;47.404;8.502;2022-08-04T09:00:44;30.40;99.90
2010;DHT22;1008;47.404;8.502;2022-08-04T09:03:37;30.50;99.90
2010;DHT22;1008;47.404;8.502;2022-08-04T09:06:21;30.80;99.90
2010;DHT22;1008;47.404;8.502;2022-08-04T09:09:03;31.00;99.90
2010;DHT22;1008;47.404;8.502;2022-08-04T09:11:38;31.30;99.90
2010;DHT22;1008;47.404;8.502;2022-08-04T09:14:16;31.60;95.90
2010;DHT22;1008;47.404;8.502;2022-08-04T09:16:51;31.60;94.40
2010;DHT22;1008;47.404;8.502;2022-08-04T09:19:23;31.60;94.20
2010;DHT22;1008;47.404;8.502;2022-08-04T09:22:00;31.70;93.20
2010;DHT22;1008;47.404;8.502;2022-08-04T09:24:36;31.60;91.10
2010;DHT22;1008;47.404;8.502;2022-08-04T09:27:14;31.60;91.50
2010;DHT22;1008;47.404;8.502;2022-08-04T09:29:52;31.80;91.10
2010;DHT22;1008;47.404;8.502;2022-08-04T09:32:31;32.00;90.70
2010;DHT22;1008;47.404;8.502;2022-08-04T09:35:09;32.00;89.50
2010;DHT22;1008;47.404;8.502;2022-08-04T09:37:41;32.10;89.30
2010;DHT22;1008;47.404;8.502;2022-08-04T09:40:17;32.40;85.90
2010;DHT22;1008;47.404;8.502;2022-08-04T09:42:51;32.30;85.50
2010;DHT22;1008;47.404;8.502;2022-08-04T09:45:26;32.20;86.40
2010;DHT22;1008;47.404;8.502;2022-08-04T09:47:59;32.40;84.70
2010;DHT22;1008;47.404;8.502;2022-08-04T09:50:32;32.50;84.10
2010;DHT22;1008;47.404;8.502;2022-08-04T09:53:12;32.50;81.40
2010;DHT22;1008;47.404;8.502;2022-08-04T09:55:51;32.70;81.90
2010;DHT22;1008;47.404;8.502;2022-08-04T09:58:29;32.70;80.60
2010;DHT22;1008;47.404;8.502;2022-08-04T10:01:03;32.70;77.00
2010;DHT22;1008;47.404;8.502;2022-08-04T10:03:34;32.70;76.00
2010;DHT22;1008;47.404;8.502;2022-08-04T10:06:09;32.70;76.80
2010;DHT22;1008;47.404;8.502;2022-08-04T10:09:00;32.70;75.80
2010;DHT22;1008;47.404;8.502;2022-08-04T10:11:49;33.00;75.50
2010;DHT22;1008;47.404;8.502;2022-08-04T10:14:31;33.20;74.60
2010;DHT22;1008;47.404;8.502;2022-08-04T10:17:18;33.60;70.90
2010;DHT22;1008;47.404;8.502;2022-08-04T10:19:52;33.60;70.60
2010;DHT22;1008;47.404;8.502;2022-08-04T10:22:25;33.60;68.80
2010;DHT22;1008;47.404;8.502;2022-08-04T10:25:02;33.60;69.10
2010;DHT22;1008;47.404;8.502;2022-08-04T10:27:35;33.70;66.60
2010;DHT22;1008;47.404;8.502;2022-08-04T10:30:06;33.90;66.80
2010;DHT22;1008;47.404;8.502;2022-08-04T10:32:43;33.90;67.00
2010;DHT22;1008;47.404;8.502;2022-08-04T10:35:13;34.00;65.80
2010;DHT22;1008;47.404;8.502;2022-08-04T10:37:45;34.10;66.10
2010;DHT22;1008;47.404;8.502;2022-08-04T10:40:19;34.10;64.60
2010;DHT22;1008;47.404;8.502;2022-08-04T10:43:08;34.10;62.60
2010;DHT22;1008;47.404;8.502;2022-08-04T10:45:40;34.20;62.70
2010;DHT22;1008;47.404;8.502;2022-08-04T10:48:18;34.50;63.30
2010;DHT22;1008;47.404;8.502;2022-08-04T10:50:55;34.70;61.30
2010;DHT22;1008;47.404;8.502;2022-08-04T10:53:25;34.70;60.00
2010;DHT22;1008;47.404;8.502;2022-08-04T10:56:01;34.80;60.10
2010;DHT22;1008;47.404;8.502;2022-08-04T10:58:34;34.80;57.80
2010;DHT22;1008;47.404;8.502;2022-08-04T11:01:10;35.00;58.90
2010;DHT22;1008;47.404;8.502;2022-08-04T11:03:43;34.90;57.50
2010;DHT22;1008;47.404;8.502;2022-08-04T11:06:13;35.00;57.60
2010;DHT22;1008;47.404;8.502;2022-08-04T11:08:43;35.00;57.50
2010;DHT22;1008;47.404;8.502;2022-08-04T11:11:16;35.00;58.20
2010;DHT22;1008;47.404;8.502;2022-08-04T11:13:48;34.70;58.50
2010;DHT22;1008;47.404;8.502;2022-08-04T11:16:21;35.00;57.40
2010;DHT22;1008;47.404;8.502;2022-08-04T11:19:05;35.20;55.60
2010;DHT22;1008;47.404;8.502;2022-08-04T11:21:34;35.50;57.50
2010;DHT22;1008;47.404;8.502;2022-08-04T11:24:04;35.80;55.40
2010;DHT22;1008;47.404;8.502;2022-08-04T11:26:39;35.60;54.40
2010;DHT22;1008;47.404;8.502;2022-08-04T11:29:16;35.30;55.60
2010;DHT22;1008;47.404;8.502;2022-08-04T11:31:48;35.50;54.50
2010;DHT22;1008;47.404;8.502;2022-08-04T11:34:20;35.50;54.00
2010;DHT22;1008;47.404;8.502;2022-08-04T11:36:51;35.20;53.50
2010;DHT22;1008;47.404;8.502;2022-08-04T11:39:26;35.30;53.50
2010;DHT22;1008;47.404;8.502;2022-08-04T11:41:59;35.30;52.90
2010;DHT22;1008;47.404;8.502;2022-08-04T11:44:30;35.40;53.60
2010;DHT22;1008;47.404;8.502;2022-08-04T11:47:01;35.50;53.60
2010;DHT22;1008;47.404;8.502;2022-08-04T11:49:34;35.30;54.10
2010;DHT22;1008;47.404;8.502;2022-08-04T11:52:06;35.40;54.30
2010;DHT22;1008;47.404;8.502;2022-08-04T11:54:35;35.40;53.70
2010;DHT22;1008;47.404;8.502;2022-08-04T11:57:03;35.50;54.00
2010;DHT22;1008;47.404;8.502;2022-08-04T11:59:32;36.10;53.40
2010;DHT22;1008;47.404;8.502;2022-08-04T12:02:18;36.30;53.40
2010;DHT22;1008;47.404;8.502;2022-08-04T12:04:56;36.40;52.60
2010;DHT22;1008;47.404;8.502;2022-08-04T12:07:33;36.30;53.70
2010;DHT22;1008;47.404;8.502;2022-08-04T12:10:14;36.60;54.10
2010;DHT22;1008;47.404;8.502;2022-08-04T12:12:49;37.20;53.70
2010;DHT22;1008;47.404;8.502;2022-08-04T12:15:25;37.40;52.40
2010;DHT22;1008;47.404;8.502;2022-08-04T12:17:58;37.20;51.30
2010;DHT22;1008;47.404;8.502;2022-08-04T12:20:33;36.80;51.00
2010;DHT22;1008;47.404;8.502;2022-08-04T12:23:05;35.90;51.80
2010;DHT22;1008;47.404;8.502;2022-08-04T12:25:39;35.80;52.00
2010;DHT22;1008;47.404;8.502;2022-08-04T12:28:12;35.60;52.50
2010;DHT22;1008;47.404;8.502;2022-08-04T12:30:45;36.10;54.20
2010;DHT22;1008;47.404;8.502;2022-08-04T12:33:20;36.50;50.30
2010;DHT22;1008;47.404;8.502;2022-08-04T12:35:56;36.50;49.70
2010;DHT22;1008;47.404;8.502;2022-08-04T12:38:28;36.30;50.20
2010;DHT22;1008;47.404;8.502;2022-08-04T12:40:59;36.40;50.50
2010;DHT22;1008;47.404;8.502;2022-08-04T12:43:31;36.30;50.20
2010;DHT22;1008;47.404;8.502;2022-08-04T12:46:02;36.20;50.00
2010;DHT22;1008;47.404;8.502;2022-08-04T12:48:31;36.20;49.90
2010;DHT22;1008;47.404;8.502;2022-08-04T12:51:00;36.20;50.10
2010;DHT22;1008;47.404;8.502;2022-08-04T12:53:31;36.20;49.20
2010;DHT22;1008;47.404;8.502;2022-08-04T12:55:59;36.40;48.50
2010;DHT22;1008;47.404;8.502;2022-08-04T12:58:27;36.70;48.40
2010;DHT22;1008;47.404;8.502;2022-08-04T13:00:59;36.90;48.50
2010;DHT22;1008;47.404;8.502;2022-08-04T13:03:29;37.00;47.40
2010;DHT22;1008;47.404;8.502;2022-08-04T13:06:04;36.90;48.40
2010;DHT22;1008;47.404;8.502;2022-08-04T13:08:35;37.00;48.60
2010;DHT22;1008;47.404;8.502;2022-08-04T13:11:04;37.00;48.10
2010;DHT22;1008;47.404;8.502;2022-08-04T13:13:34;36.90;48.00
2010;DHT22;1008;47.404;8.502;2022-08-04T13:16:04;37.10;49.30
2010;DHT22;1008;47.404;8.502;2022-08-04T13:18:33;37.40;47.00
2010;DHT22;1008;47.404;8.502;2022-08-04T13:21:12;37.00;45.90
2010;DHT22;1008;47.404;8.502;2022-08-04T13:23:40;36.80;46.30
2010;DHT22;1008;47.404;8.502;2022-08-04T13:26:11;36.90;46.70
2010;DHT22;1008;47.404;8.502;2022-08-04T13:28:39;36.60;46.10
2010;DHT22;1008;47.404;8.502;2022-08-04T13:31:07;36.40;46.40
2010;DHT22;1008;47.404;8.502;2022-08-04T13:33:37;36.20;46.60
2010;DHT22;1008;47.404;8.502;2022-08-04T13:36:06;36.20;47.60
2010;DHT22;1008;47.404;8.502;2022-08-04T13:38:37;36.20;47.10
2010;DHT22;1008;47.404;8.502;2022-08-04T13:41:06;36.30;46.10
2010;DHT22;1008;47.404;8.502;2022-08-04T13:43:41;36.60;46.30
2010;DHT22;1008;47.404;8.502;2022-08-04T13:46:13;36.80;45.00
2010;DHT22;1008;47.404;8.502;2022-08-04T13:48:42;36.90;46.30
2010;DHT22;1008;47.404;8.502;2022-08-04T13:51:10;37.10;45.50
2010;DHT22;1008;47.404;8.502;2022-08-04T13:53:39;37.20;45.50
2010;DHT22;1008;47.404;8.502;2022-08-04T13:56:09;37.00;45.00
2010;DHT22;1008;47.404;8.502;2022-08-04T13:58:41;37.00;45.50
2010;DHT22;1008;47.404;8.502;2022-08-04T14:01:14;37.00;44.80
2010;DHT22;1008;47.404;8.502;2022-08-04T14:03:49;36.80;45.10
2010;DHT22;1008;47.404;8.502;2022-08-04T14:06:20;36.60;44.90
2010;DHT22;1008;47.404;8.502;2022-08-04T14:08:53;36.70;45.50
2010;DHT22;1008;47.404;8.502;2022-08-04T14:11:22;36.60;44.40
2010;DHT22;1008;47.404;8.502;2022-08-04T14:13:49;36.70;45.10
2010;DHT22;1008;47.404;8.502;2022-08-04T14:16:18;36.90;43.00
2010;DHT22;1008;47.404;8.502;2022-08-04T14:18:45;37.20;44.60
2010;DHT22;1008;47.404;8.502;2022-08-04T14:21:13;37.60;42.90
2010;DHT22;1008;47.404;8.502;2022-08-04T14:23:47;37.40;42.70
2010;DHT22;1008;47.404;8.502;2022-08-04T14:26:19;37.00;41.90
2010;DHT22;1008;47.404;8.502;2022-08-04T14:28:46;36.80;41.50
2010;DHT22;1008;47.404;8.502;2022-08-04T14:31:14;36.70;42.00
2010;DHT22;1008;47.404;8.502;2022-08-04T14:33:42;36.80;41.60
2010;DHT22;1008;47.404;8.502;2022-08-04T14:36:11;36.90;41.50
2010;DHT22;1008;47.404;8.502;2022-08-04T14:38:47;36.90;41.30
2010;DHT22;1008;47.404;8.502;2022-08-04T14:41:16;36.90;41.10
2010;DHT22;1008;47.404;8.502;2022-08-04T14:43:45;36.70;41.00
2010;DHT22;1008;47.404;8.502;2022-08-04T14:46:12;36.60;41.60
2010;DHT22;1008;47.404;8.502;2022-08-04T14:48:58;36.70;41.80
2010;DHT22;1008;47.404;8.502;2022-08-04T14:51:26;36.80;41.50
2010;DHT22;1008;47.404;8.502;2022-08-04T14:53:53;36.60;40.90
2010;DHT22;1008;47.404;8.502;2022-08-04T14:56:21;36.40;41.60
2010;DHT22;1008;47.404;8.502;2022-08-04T14:58:58;36.30;41.10
2010;DHT22;1008;47.404;8.502;2022-08-04T15:01:26;36.30;41.70
2010;DHT22;1008;47.404;8.502;2022-08-04T15:03:53;36.20;41.50
2010;DHT22;1008;47.404;8.502;2022-08-04T15:06:22;36.40;42.10
2010;DHT22;1008;47.404;8.502;2022-08-04T15:08:51;36.30;42.30
2010;DHT22;1008;47.404;8.502;2022-08-04T15:11:18;36.40;42.50
2010;DHT22;1008;47.404;8.502;2022-08-04T15:13:46;36.40;42.20
2010;DHT22;1008;47.404;8.502;2022-08-04T15:16:14;36.50;43.80
2010;DHT22;1008;47.404;8.502;2022-08-04T15:18:41;36.70;42.90
2010;DHT22;1008;47.404;8.502;2022-08-04T15:21:09;36.90;43.00
2010;DHT22;1008;47.404;8.502;2022-08-04T15:23:37;37.10;42.90
2010;DHT22;1008;47.404;8.502;2022-08-04T15:26:04;37.20;42.60
2010;DHT22;1008;47.404;8.502;2022-08-04T15:28:34;37.20;41.90
2010;DHT22;1008;47.404;8.502;2022-08-04T15:31:04;37.10;42.20
2010;DHT22;1008;47.404;8.502;2022-08-04T15:33:32;37.00;41.10
2010;DHT22;1008;47.404;8.502;2022-08-04T15:36:11;36.80;40.40
2010;DHT22;1008;47.404;8.502;2022-08-04T15:38:42;36.80;41.00
2010;DHT22;1008;47.404;8.502;2022-08-04T15:41:18;36.60;40.20
2010;DHT22;1008;47.404;8.502;2022-08-04T15:43:56;36.60;40.70
2010;DHT22;1008;47.404;8.502;2022-08-04T15:47:08;36.70;40.80
2010;DHT22;1008;47.404;8.502;2022-08-04T15:49:36;36.60;40.50
2010;DHT22;1008;47.404;8.502;2022-08-04T15:52:05;36.40;41.20
2010;DHT22;1008;47.404;8.502;2022-08-04T15:54:32;36.30;41.00
2010;DHT22;1008;47.404;8.502;2022-08-04T15:57:01;36.40;41.90
2010;DHT22;1008;47.404;8.502;2022-08-04T16:00:02;36.50;40.70
2010;DHT22;1008;47.404;8.502;2022-08-04T16:02:49;36.60;41.00
2010;DHT22;1008;47.404;8.502;2022-08-04T16:05:29;36.60;40.30
2010;DHT22;1008;47.404;8.502;2022-08-04T16:07:59;36.40;40.70
2010;DHT22;1008;47.404;8.502;2022-08-04T16:10:36;36.30;40.70
2010;DHT22;1008;47.404;8.502;2022-08-04T16:13:04;36.30;41.70
2010;DHT22;1008;47.404;8.502;2022-08-04T16:15:43;36.30;40.40
2010;DHT22;1008;47.404;8.502;2022-08-04T16:18:18;36.10;41.40
2010;DHT22;1008;47.404;8.502;2022-08-04T16:20:46;36.10;41.40
2010;DHT22;1008;47.404;8.502;2022-08-04T16:23:30;36.30;41.20
2010;DHT22;1008;47.404;8.502;2022-08-04T16:26:01;36.10;41.30
2010;DHT22;1008;47.404;8.502;2022-08-04T16:28:39;36.20;41.20
2010;DHT22;1008;47.404;8.502;2022-08-04T16:31:08;36.20;39.90
2010;DHT22;1008;47.404;8.502;2022-08-04T16:33:37;36.00;41.10
2010;DHT22;1008;47.404;8.502;2022-08-04T16:36:06;36.30;40.30
2010;DHT22;1008;47.404;8.502;2022-08-04T16:39:01;36.40;40.10
2010;DHT22;1008;47.404;8.502;2022-08-04T16:41:38;36.20;40.40
2010;DHT22;1008;47.404;8.502;2022-08-04T16:44:27;36.20;40.80
2010;DHT22;1008;47.404;8.502;2022-08-04T16:46:54;36.30;41.10
2010;DHT22;1008;47.404;8.502;2022-08-04T16:49:22;36.30;41.20
2010;DHT22;1008;47.404;8.502;2022-08-04T16:51:50;36.40;41.90
2010;DHT22;1008;47.404;8.502;2022-08-04T16:54:17;36.40;41.50
2010;DHT22;1008;47.404;8.502;2022-08-04T16:56:45;36.40;41.90
2010;DHT22;1008;47.404;8.502;2022-08-04T16:59:12;36.20;41.90
2010;DHT22;1008;47.404;8.502;2022-08-04T17:01:45;35.90;42.60
2010;DHT22;1008;47.404;8.502;2022-08-04T17:04:12;36.10;41.80
2010;DHT22;1008;47.404;8.502;2022-08-04T17:06:41;35.80;41.90
2010;DHT22;1008;47.404;8.502;2022-08-04T17:09:11;35.80;41.50
2010;DHT22;1008;47.404;8.502;2022-08-04T17:11:39;35.70;42.00
2010;DHT22;1008;47.404;8.502;2022-08-04T17:14:06;35.70;42.20
2010;DHT22;1008;47.404;8.502;2022-08-04T17:16:34;35.70;42.30
2010;DHT22;1008;47.404;8.502;2022-08-04T17:19:02;35.80;43.00
2010;DHT22;1008;47.404;8.502;2022-08-04T17:21:32;35.90;43.20
2010;DHT22;1008;47.404;8.502;2022-08-04T17:24:01;36.00;43.40